sensor_id;sensor_type;location;lat;lon;timestamp;P1;durP1;ratioP1;P2;durP2;ratioP2
12367;SDS011;6248;49.812;6.620;2024-03-08T00:02:24;12.90;;;10.10;;
12367;SDS011;6248;49.812;6.620;2024-03-08T00:04:51;12.80;;;9.87;;
12367;SDS011;6248;49.812;6.620;2024-03-08T00:07:18;12.77;;;10.33;;
12367;SDS011;6248;49.812;6.620;2024-03-08T00:09:47;12.27;;;9.03;;
12367;SDS011;6248;49.812;6.620;2024-03-08T00:12:14;12.93;;;10.40;;
12367;SDS011;6248;49.812;6.620;2024-03-08T00:14:41;13.00;;;9.47;;
12367;SDS011;6248;49.812;6.620;2024-03-08T00:17:09;11.23;;;9.47;;
12367;SDS011;6248;49.812;6.620;2024-03-08T00:19:37;13.00;;;10.33;;
12367;SDS011;6248;49.812;6.620;2024-03-08T00:22:04;12.63;;;9.50;;
12367;SDS011;6248;49.812;6.620;2024-03-08T00:24:33;11.73;;;9.77;;
12367;SDS011;6248;49.812;6.620;2024-03-08T00:27:01;12.47;;;10.00;;
12367;SDS011;6248;49.812;6.620;2024-03-08T00:29:29;12.70;;;10.33;;
12367;SDS011;6248;49.812;6.620;2024-03-08T00:31:57;11.67;;;9.50;;
12367;SDS011;6248;49.812;6.620;2024-03-08T00:34:24;13.43;;;10.23;;
12367;SDS011;6248;49.812;6.620;2024-03-08T00:36:51;11.37;;;9.57;;
12367;SDS011;6248;49.812;6.620;2024-03-08T00:39:18;12.43;;;9.90;;
12367;SDS011;6248;49.812;6.620;2024-03-08T00:41:46;11.03;;;9.10;;
12367;SDS011;6248;49.812;6.620;2024-03-08T00:44:14;11.77;;;10.03;;
12367;SDS011;6248;49.812;6.620;2024-03-08T00:46:42;13.23;;;10.30;;
12367;SDS011;6248;49.812;6.620;2024-03-08T00:49:09;13.80;;;10.80;;
12367;SDS011;6248;49.812;6.620;2024-03-08T00:51:37;12.10;;;9.87;;
12367;SDS011;6248;49.812;6.620;2024-03-08T00:54:04;12.57;;;9.50;;
12367;SDS011;6248;49.812;6.620;2024-03-08T00:56:31;12.23;;;9.70;;
12367;SDS011;6248;49.812;6.620;2024-03-08T00:59:00;13.50;;;9.80;;
12367;SDS011;6248;49.812;6.620;2024-03-08T01:01:29;13.43;;;10.23;;
12367;SDS011;6248;49.812;6.620;2024-03-08T01:03:56;14.50;;;10.83;;
12367;SDS011;6248;49.812;6.620;2024-03-08T01:06:23;12.53;;;10.40;;
12367;SDS011;6248;49.812;6.620;2024-03-08T01:08:52;13.03;;;10.37;;
12367;SDS011;6248;49.812;6.620;2024-03-08T01:11:19;12.07;;;10.13;;
12367;SDS011;6248;49.812;6.620;2024-03-08T01:13:46;14.70;;;10.90;;
12367;SDS011;6248;49.812;6.620;2024-03-08T01:16:15;12.87;;;10.47;;
12367;SDS011;6248;49.812;6.620;2024-03-08T01:18:44;13.43;;;10.27;;
12367;SDS011;6248;49.812;6.620;2024-03-08T01:21:11;12.87;;;10.30;;
12367;SDS011;6248;49.812;6.620;2024-03-08T01:23:38;13.13;;;10.60;;
12367;SDS011;6248;49.812;6.620;2024-03-08T01:26:05;13.03;;;10.27;;
12367;SDS011;6248;49.812;6.620;2024-03-08T01:28:33;14.03;;;10.83;;
12367;SDS011;6248;49.812;6.620;2024-03-08T01:31:00;12.73;;;10.37;;
12367;SDS011;6248;49.812;6.620;2024-03-08T01:33:28;14.10;;;10.70;;
12367;SDS011;6248;49.812;6.620;2024-03-08T01:35:57;14.43;;;10.90;;
12367;SDS011;6248;49.812;6.620;2024-03-08T01:38:24;13.83;;;10.97;;
12367;SDS011;6248;49.812;6.620;2024-03-08T01:40:52;16.13;;;11.30;;
12367;SDS011;6248;49.812;6.620;2024-03-08T01:43:19;13.57;;;10.07;;
12367;SDS011;6248;49.812;6.620;2024-03-08T01:45:47;16.40;;;11.33;;
12367;SDS011;6248;49.812;6.620;2024-03-08T01:48:14;13.37;;;10.73;;
12367;SDS011;6248;49.812;6.620;2024-03-08T01:50:42;14.47;;;11.27;;
12367;SDS011;6248;49.812;6.620;2024-03-08T01:53:11;13.67;;;10.87;;
12367;SDS011;6248;49.812;6.620;2024-03-08T01:55:40;13.03;;;11.37;;
12367;SDS011;6248;49.812;6.620;2024-03-08T01:58:07;13.27;;;10.77;;
12367;SDS011;6248;49.812;6.620;2024-03-08T02:00:36;14.37;;;11.80;;
12367;SDS011;6248;49.812;6.620;2024-03-08T02:03:05;15.53;;;11.70;;
12367;SDS011;6248;49.812;6.620;2024-03-08T02:05:33;14.53;;;11.70;;
12367;SDS011;6248;49.812;6.620;2024-03-08T02:08:00;14.77;;;11.20;;
12367;SDS011;6248;49.812;6.620;2024-03-08T02:10:29;14.07;;;11.30;;
12367;SDS011;6248;49.812;6.620;2024-03-08T02:12:57;15.67;;;11.70;;
12367;SDS011;6248;49.812;6.620;2024-03-08T02:15:24;16.00;;;13.00;;
12367;SDS011;6248;49.812;6.620;2024-03-08T02:17:52;16.23;;;11.80;;
12367;SDS011;6248;49.812;6.620;2024-03-08T02:20:19;15.57;;;12.00;;
12367;SDS011;6248;49.812;6.620;2024-03-08T02:22:47;15.97;;;12.53;;
12367;SDS011;6248;49.812;6.620;2024-03-08T02:25:15;15.57;;;11.70;;
12367;SDS011;6248;49.812;6.620;2024-03-08T02:27:43;16.27;;;12.53;;
12367;SDS011;6248;49.812;6.620;2024-03-08T02:30:10;14.80;;;12.10;;
12367;SDS011;6248;49.812;6.620;2024-03-08T02:32:38;17.33;;;13.23;;
12367;SDS011;6248;49.812;6.620;2024-03-08T02:35:06;16.40;;;13.00;;
12367;SDS011;6248;49.812;6.620;2024-03-08T02:37:33;14.30;;;11.93;;
12367;SDS011;6248;49.812;6.620;2024-03-08T02:40:01;15.27;;;13.17;;
12367;SDS011;6248;49.812;6.620;2024-03-08T02:42:29;16.50;;;13.50;;
12367;SDS011;6248;49.812;6.620;2024-03-08T02:44:56;14.67;;;11.73;;
12367;SDS011;6248;49.812;6.620;2024-03-08T02:47:23;15.97;;;12.63;;
12367;SDS011;6248;49.812;6.620;2024-03-08T02:49:51;18.70;;;13.50;;
12367;SDS011;6248;49.812;6.620;2024-03-08T02:52:18;16.30;;;12.33;;
12367;SDS011;6248;49.812;6.620;2024-03-08T02:54:46;17.70;;;13.73;;
12367;SDS011;6248;49.812;6.620;2024-03-08T02:57:14;17.90;;;13.77;;
12367;SDS011;6248;49.812;6.620;2024-03-08T02:59:41;15.83;;;12.93;;
12367;SDS011;6248;49.812;6.620;2024-03-08T03:02:09;15.80;;;13.00;;
12367;SDS011;6248;49.812;6.620;2024-03-08T03:04:36;18.83;;;14.30;;
12367;SDS011;6248;49.812;6.620;2024-03-08T03:07:07;17.43;;;13.43;;
12367;SDS011;6248;49.812;6.620;2024-03-08T03:09:34;15.67;;;12.30;;
12367;SDS011;6248;49.812;6.620;2024-03-08T03:12:01;16.40;;;13.53;;
12367;SDS011;6248;49.812;6.620;2024-03-08T03:14:30;18.40;;;13.50;;
12367;SDS011;6248;49.812;6.620;2024-03-08T03:16:57;16.53;;;13.30;;
12367;SDS011;6248;49.812;6.620;2024-03-08T03:19:24;15.77;;;12.83;;
12367;SDS011;6248;49.812;6.620;2024-03-08T03:21:53;15.87;;;12.60;;
12367;SDS011;6248;49.812;6.620;2024-03-08T03:24:20;16.87;;;12.83;;
12367;SDS011;6248;49.812;6.620;2024-03-08T03:26:48;16.00;;;13.37;;
12367;SDS011;6248;49.812;6.620;2024-03-08T03:29:17;16.80;;;13.17;;
12367;SDS011;6248;49.812;6.620;2024-03-08T03:31:46;16.70;;;12.83;;
12367;SDS011;6248;49.812;6.620;2024-03-08T03:34:13;15.87;;;12.60;;
12367;SDS011;6248;49.812;6.620;2024-03-08T03:36:40;16.13;;;13.13;;
12367;SDS011;6248;49.812;6.620;2024-03-08T03:39:10;14.53;;;12.67;;
12367;SDS011;6248;49.812;6.620;2024-03-08T03:41:40;16.17;;;12.83;;
12367;SDS011;6248;49.812;6.620;2024-03-08T03:44:09;16.40;;;12.90;;
12367;SDS011;6248;49.812;6.620;2024-03-08T03:46:37;16.00;;;13.47;;
12367;SDS011;6248;49.812;6.620;2024-03-08T03:49:05;16.87;;;13.33;;
12367;SDS011;6248;49.812;6.620;2024-03-08T03:51:32;15.87;;;12.47;;
12367;SDS011;6248;49.812;6.620;2024-03-08T03:53:59;15.60;;;12.23;;
12367;SDS011;6248;49.812;6.620;2024-03-08T03:56:28;19.53;;;13.30;;
12367;SDS011;6248;49.812;6.620;2024-03-08T03:58:56;16.43;;;13.30;;
12367;SDS011;6248;49.812;6.620;2024-03-08T04:01:23;16.67;;;13.00;;
12367;SDS011;6248;49.812;6.620;2024-03-08T04:03:50;17.57;;;13.80;;
12367;SDS011;6248;49.812;6.620;2024-03-08T04:06:19;16.67;;;13.23;;
12367;SDS011;6248;49.812;6.620;2024-03-08T04:08:47;17.20;;;13.60;;
12367;SDS011;6248;49.812;6.620;2024-03-08T04:11:14;16.90;;;13.97;;
12367;SDS011;6248;49.812;6.620;2024-03-08T04:13:42;16.67;;;13.57;;
12367;SDS011;6248;49.812;6.620;2024-03-08T04:16:09;15.10;;;12.70;;
12367;SDS011;6248;49.812;6.620;2024-03-08T04:18:36;17.10;;;13.00;;
12367;SDS011;6248;49.812;6.620;2024-03-08T04:21:04;18.43;;;14.23;;
12367;SDS011;6248;49.812;6.620;2024-03-08T04:23:34;17.13;;;13.10;;
12367;SDS011;6248;49.812;6.620;2024-03-08T04:26:01;16.33;;;12.77;;
12367;SDS011;6248;49.812;6.620;2024-03-08T04:28:29;16.37;;;13.33;;
12367;SDS011;6248;49.812;6.620;2024-03-08T04:30:56;16.87;;;13.47;;
12367;SDS011;6248;49.812;6.620;2024-03-08T04:33:25;17.03;;;13.83;;
12367;SDS011;6248;49.812;6.620;2024-03-08T04:35:53;17.47;;;13.33;;
12367;SDS011;6248;49.812;6.620;2024-03-08T04:38:20;15.83;;;13.37;;
12367;SDS011;6248;49.812;6.620;2024-03-08T04:40:48;17.90;;;13.77;;
12367;SDS011;6248;49.812;6.620;2024-03-08T04:43:16;17.50;;;13.33;;
12367;SDS011;6248;49.812;6.620;2024-03-08T04:45:45;17.50;;;14.00;;
12367;SDS011;6248;49.812;6.620;2024-03-08T04:48:13;18.37;;;13.40;;
12367;SDS011;6248;49.812;6.620;2024-03-08T04:50:40;16.77;;;13.47;;
12367;SDS011;6248;49.812;6.620;2024-03-08T04:53:07;16.63;;;13.83;;
12367;SDS011;6248;49.812;6.620;2024-03-08T04:55:35;16.30;;;13.10;;
12367;SDS011;6248;49.812;6.620;2024-03-08T04:58:04;16.53;;;13.27;;
12367;SDS011;6248;49.812;6.620;2024-03-08T05:00:32;17.77;;;13.87;;
12367;SDS011;6248;49.812;6.620;2024-03-08T05:02:59;16.43;;;13.80;;
12367;SDS011;6248;49.812;6.620;2024-03-08T05:05:26;17.63;;;13.93;;
12367;SDS011;6248;49.812;6.620;2024-03-08T05:07:54;17.83;;;13.70;;
12367;SDS011;6248;49.812;6.620;2024-03-08T05:10:21;16.00;;;13.90;;
12367;SDS011;6248;49.812;6.620;2024-03-08T05:12:48;15.30;;;13.27;;
12367;SDS011;6248;49.812;6.620;2024-03-08T05:15:17;16.00;;;13.63;;
12367;SDS011;6248;49.812;6.620;2024-03-08T05:17:45;17.13;;;13.73;;
12367;SDS011;6248;49.812;6.620;2024-03-08T05:20:12;17.80;;;14.33;;
12367;SDS011;6248;49.812;6.620;2024-03-08T05:22:40;17.77;;;14.20;;
12367;SDS011;6248;49.812;6.620;2024-03-08T05:25:07;15.50;;;12.87;;
12367;SDS011;6248;49.812;6.620;2024-03-08T05:27:35;16.60;;;13.73;;
12367;SDS011;6248;49.812;6.620;2024-03-08T05:30:02;16.90;;;13.97;;
12367;SDS011;6248;49.812;6.620;2024-03-08T05:32:30;17.10;;;13.70;;
12367;SDS011;6248;49.812;6.620;2024-03-08T05:34:57;17.30;;;13.67;;
12367;SDS011;6248;49.812;6.620;2024-03-08T05:37:25;21.07;;;14.30;;
12367;SDS011;6248;49.812;6.620;2024-03-08T05:39:52;17.90;;;14.80;;
12367;SDS011;6248;49.812;6.620;2024-03-08T05:42:19;15.50;;;13.13;;
12367;SDS011;6248;49.812;6.620;2024-03-08T05:44:47;18.57;;;14.33;;
12367;SDS011;6248;49.812;6.620;2024-03-08T05:47:14;16.77;;;14.43;;
12367;SDS011;6248;49.812;6.620;2024-03-08T05:49:44;18.97;;;14.33;;
12367;SDS011;6248;49.812;6.620;2024-03-08T05:52:11;18.23;;;13.53;;
12367;SDS011;6248;49.812;6.620;2024-03-08T05:54:39;18.17;;;14.00;;
12367;SDS011;6248;49.812;6.620;2024-03-08T05:57:07;16.90;;;13.60;;
12367;SDS011;6248;49.812;6.620;2024-03-08T05:59:34;16.97;;;13.80;;
12367;SDS011;6248;49.812;6.620;2024-03-08T06:02:01;16.80;;;14.27;;
12367;SDS011;6248;49.812;6.620;2024-03-08T06:04:29;18.10;;;14.37;;
12367;SDS011;6248;49.812;6.620;2024-03-08T06:06:57;17.07;;;13.83;;
12367;SDS011;6248;49.812;6.620;2024-03-08T06:09:24;16.87;;;14.10;;
12367;SDS011;6248;49.812;6.620;2024-03-08T06:11:51;18.63;;;14.60;;
12367;SDS011;6248;49.812;6.620;2024-03-08T06:14:19;17.37;;;13.57;;
12367;SDS011;6248;49.812;6.620;2024-03-08T06:16:46;16.23;;;13.40;;
12367;SDS011;6248;49.812;6.620;2024-03-08T06:19:15;17.10;;;14.30;;
12367;SDS011;6248;49.812;6.620;2024-03-08T06:21:42;16.63;;;14.10;;
12367;SDS011;6248;49.812;6.620;2024-03-08T06:24:10;18.27;;;14.10;;
12367;SDS011;6248;49.812;6.620;2024-03-08T06:26:37;17.50;;;13.93;;
12367;SDS011;6248;49.812;6.620;2024-03-08T06:29:05;19.97;;;14.40;;
12367;SDS011;6248;49.812;6.620;2024-03-08T06:31:32;17.73;;;14.37;;
12367;SDS011;6248;49.812;6.620;2024-03-08T06:34:04;17.97;;;14.27;;
12367;SDS011;6248;49.812;6.620;2024-03-08T06:36:33;16.67;;;13.70;;
12367;SDS011;6248;49.812;6.620;2024-03-08T06:39:03;16.93;;;14.20;;
12367;SDS011;6248;49.812;6.620;2024-03-08T06:41:35;17.80;;;14.27;;
12367;SDS011;6248;49.812;6.620;2024-03-08T06:44:03;17.37;;;14.57;;
12367;SDS011;6248;49.812;6.620;2024-03-08T06:46:30;16.60;;;13.70;;
12367;SDS011;6248;49.812;6.620;2024-03-08T06:48:58;15.40;;;13.03;;
12367;SDS011;6248;49.812;6.620;2024-03-08T06:51:25;16.93;;;13.57;;
12367;SDS011;6248;49.812;6.620;2024-03-08T06:53:52;18.43;;;13.13;;
12367;SDS011;6248;49.812;6.620;2024-03-08T06:56:20;15.20;;;13.20;;
12367;SDS011;6248;49.812;6.620;2024-03-08T06:58:49;16.77;;;14.23;;
12367;SDS011;6248;49.812;6.620;2024-03-08T07:01:16;18.50;;;13.67;;
12367;SDS011;6248;49.812;6.620;2024-03-08T07:03:43;18.67;;;14.60;;
12367;SDS011;6248;49.812;6.620;2024-03-08T07:06:10;21.73;;;16.27;;
12367;SDS011;6248;49.812;6.620;2024-03-08T07:08:39;20.37;;;14.80;;
12367;SDS011;6248;49.812;6.620;2024-03-08T07:11:06;22.13;;;17.07;;
12367;SDS011;6248;49.812;6.620;2024-03-08T07:13:33;23.67;;;17.97;;
12367;SDS011;6248;49.812;6.620;2024-03-08T07:16:03;22.13;;;16.70;;
12367;SDS011;6248;49.812;6.620;2024-03-08T07:18:30;28.13;;;17.73;;
12367;SDS011;6248;49.812;6.620;2024-03-08T07:20:57;21.67;;;16.10;;
12367;SDS011;6248;49.812;6.620;2024-03-08T07:23:27;20.53;;;15.63;;
12367;SDS011;6248;49.812;6.620;2024-03-08T07:26:23;18.37;;;13.27;;
12367;SDS011;6248;49.812;6.620;2024-03-08T07:28:51;20.63;;;15.07;;
12367;SDS011;6248;49.812;6.620;2024-03-08T07:31:19;17.43;;;13.97;;
12367;SDS011;6248;49.812;6.620;2024-03-08T07:33:56;15.97;;;12.33;;
12367;SDS011;6248;49.812;6.620;2024-03-08T07:36:23;17.70;;;13.90;;
12367;SDS011;6248;49.812;6.620;2024-03-08T07:38:51;19.03;;;13.70;;
12367;SDS011;6248;49.812;6.620;2024-03-08T07:41:18;16.47;;;13.23;;
12367;SDS011;6248;49.812;6.620;2024-03-08T07:43:46;17.10;;;13.60;;
12367;SDS011;6248;49.812;6.620;2024-03-08T07:46:14;15.63;;;12.63;;
12367;SDS011;6248;49.812;6.620;2024-03-08T07:48:43;15.07;;;12.50;;
12367;SDS011;6248;49.812;6.620;2024-03-08T07:51:11;17.67;;;12.67;;
12367;SDS011;6248;49.812;6.620;2024-03-08T07:53:38;16.40;;;12.50;;
12367;SDS011;6248;49.812;6.620;2024-03-08T07:56:06;15.23;;;12.03;;
12367;SDS011;6248;49.812;6.620;2024-03-08T07:58:36;16.37;;;12.70;;
12367;SDS011;6248;49.812;6.620;2024-03-08T08:01:07;14.40;;;11.73;;
12367;SDS011;6248;49.812;6.620;2024-03-08T08:03:34;15.00;;;12.30;;
12367;SDS011;6248;49.812;6.620;2024-03-08T08:06:03;14.93;;;11.77;;
12367;SDS011;6248;49.812;6.620;2024-03-08T08:08:30;14.93;;;12.70;;
12367;SDS011;6248;49.812;6.620;2024-03-08T08:10:57;15.80;;;13.57;;
12367;SDS011;6248;49.812;6.620;2024-03-08T08:13:26;15.73;;;12.43;;
12367;SDS011;6248;49.812;6.620;2024-03-08T08:15:59;15.40;;;12.37;;
12367;SDS011;6248;49.812;6.620;2024-03-08T08:18:28;16.80;;;12.97;;
12367;SDS011;6248;49.812;6.620;2024-03-08T08:20:58;16.13;;;12.90;;
12367;SDS011;6248;49.812;6.620;2024-03-08T08:23:26;15.40;;;12.97;;
12367;SDS011;6248;49.812;6.620;2024-03-08T08:25:54;17.20;;;12.00;;
12367;SDS011;6248;49.812;6.620;2024-03-08T08:28:21;15.80;;;13.10;;
12367;SDS011;6248;49.812;6.620;2024-03-08T08:30:49;14.60;;;11.90;;
12367;SDS011;6248;49.812;6.620;2024-03-08T08:33:17;15.43;;;12.37;;
12367;SDS011;6248;49.812;6.620;2024-03-08T08:35:46;15.13;;;12.10;;
12367;SDS011;6248;49.812;6.620;2024-03-08T08:38:13;13.13;;;10.93;;
12367;SDS011;6248;49.812;6.620;2024-03-08T08:40:40;14.33;;;11.97;;
12367;SDS011;6248;49.812;6.620;2024-03-08T08:43:07;17.37;;;12.47;;
12367;SDS011;6248;49.812;6.620;2024-03-08T08:45:34;14.43;;;11.90;;
12367;SDS011;6248;49.812;6.620;2024-03-08T08:48:03;13.60;;;11.37;;
12367;SDS011;6248;49.812;6.620;2024-03-08T08:50:30;15.33;;;12.37;;
12367;SDS011;6248;49.812;6.620;2024-03-08T08:52:59;14.87;;;12.40;;
12367;SDS011;6248;49.812;6.620;2024-03-08T08:55:26;13.37;;;11.70;;
12367;SDS011;6248;49.812;6.620;2024-03-08T08:57:54;14.57;;;11.47;;
12367;SDS011;6248;49.812;6.620;2024-03-08T09:00:22;15.10;;;12.43;;
12367;SDS011;6248;49.812;6.620;2024-03-08T09:02:52;15.43;;;12.33;;
12367;SDS011;6248;49.812;6.620;2024-03-08T09:05:20;19.63;;;14.43;;
12367;SDS011;6248;49.812;6.620;2024-03-08T09:07:49;17.37;;;12.57;;
12367;SDS011;6248;49.812;6.620;2024-03-08T09:10:17;14.57;;;12.30;;
12367;SDS011;6248;49.812;6.620;2024-03-08T09:12:45;15.10;;;12.13;;
12367;SDS011;6248;49.812;6.620;2024-03-08T09:15:12;14.30;;;12.30;;
12367;SDS011;6248;49.812;6.620;2024-03-08T09:17:43;15.07;;;12.37;;
12367;SDS011;6248;49.812;6.620;2024-03-08T09:20:10;15.53;;;12.97;;
12367;SDS011;6248;49.812;6.620;2024-03-08T09:22:40;16.57;;;13.07;;
12367;SDS011;6248;49.812;6.620;2024-03-08T09:25:08;14.80;;;12.93;;
12367;SDS011;6248;49.812;6.620;2024-03-08T09:27:36;14.30;;;12.70;;
12367;SDS011;6248;49.812;6.620;2024-03-08T09:30:05;13.47;;;11.77;;
12367;SDS011;6248;49.812;6.620;2024-03-08T09:32:32;14.67;;;12.47;;
12367;SDS011;6248;49.812;6.620;2024-03-08T09:35:00;15.23;;;12.37;;
12367;SDS011;6248;49.812;6.620;2024-03-08T09:37:27;16.13;;;12.40;;
12367;SDS011;6248;49.812;6.620;2024-03-08T09:39:54;14.53;;;12.20;;
12367;SDS011;6248;49.812;6.620;2024-03-08T09:42:24;13.53;;;10.93;;
12367;SDS011;6248;49.812;6.620;2024-03-08T09:44:52;13.87;;;11.57;;
12367;SDS011;6248;49.812;6.620;2024-03-08T09:47:20;14.30;;;11.40;;
12367;SDS011;6248;49.812;6.620;2024-03-08T09:49:49;14.33;;;10.57;;
12367;SDS011;6248;49.812;6.620;2024-03-08T09:52:16;13.00;;;10.97;;
12367;SDS011;6248;49.812;6.620;2024-03-08T09:54:44;15.13;;;12.03;;
12367;SDS011;6248;49.812;6.620;2024-03-08T09:57:11;13.87;;;11.53;;
12367;SDS011;6248;49.812;6.620;2024-03-08T09:59:40;16.60;;;12.40;;
12367;SDS011;6248;49.812;6.620;2024-03-08T10:02:13;13.93;;;11.43;;
12367;SDS011;6248;49.812;6.620;2024-03-08T10:04:42;13.80;;;11.30;;
12367;SDS011;6248;49.812;6.620;2024-03-08T10:07:11;12.80;;;11.43;;
12367;SDS011;6248;49.812;6.620;2024-03-08T10:09:38;13.00;;;11.07;;
12367;SDS011;6248;49.812;6.620;2024-03-08T10:12:14;13.47;;;11.23;;
12367;SDS011;6248;49.812;6.620;2024-03-08T10:14:42;15.20;;;11.73;;
12367;SDS011;6248;49.812;6.620;2024-03-08T10:17:09;13.67;;;11.17;;
12367;SDS011;6248;49.812;6.620;2024-03-08T10:19:38;13.80;;;10.97;;
12367;SDS011;6248;49.812;6.620;2024-03-08T10:22:06;11.57;;;10.20;;
12367;SDS011;6248;49.812;6.620;2024-03-08T10:24:34;13.40;;;11.10;;
12367;SDS011;6248;49.812;6.620;2024-03-08T10:27:02;14.37;;;11.93;;
12367;SDS011;6248;49.812;6.620;2024-03-08T10:29:30;13.07;;;11.13;;
12367;SDS011;6248;49.812;6.620;2024-03-08T10:31:57;16.17;;;11.53;;
12367;SDS011;6248;49.812;6.620;2024-03-08T10:34:25;15.07;;;12.23;;
12367;SDS011;6248;49.812;6.620;2024-03-08T10:36:53;12.27;;;10.93;;
12367;SDS011;6248;49.812;6.620;2024-03-08T10:39:25;14.53;;;11.93;;
12367;SDS011;6248;49.812;6.620;2024-03-08T10:41:53;12.20;;;10.90;;
12367;SDS011;6248;49.812;6.620;2024-03-08T10:47:13;14.27;;;11.33;;
12367;SDS011;6248;49.812;6.620;2024-03-08T10:49:44;12.33;;;10.77;;
12367;SDS011;6248;49.812;6.620;2024-03-08T10:52:17;13.30;;;11.20;;
12367;SDS011;6248;49.812;6.620;2024-03-08T10:54:47;12.73;;;11.17;;
12367;SDS011;6248;49.812;6.620;2024-03-08T10:57:17;12.33;;;11.03;;
12367;SDS011;6248;49.812;6.620;2024-03-08T10:59:45;12.60;;;10.93;;
12367;SDS011;6248;49.812;6.620;2024-03-08T11:02:15;11.80;;;10.60;;
12367;SDS011;6248;49.812;6.620;2024-03-08T11:04:45;13.43;;;11.33;;
12367;SDS011;6248;49.812;6.620;2024-03-08T11:07:14;13.70;;;11.27;;
12367;SDS011;6248;49.812;6.620;2024-03-08T11:09:46;12.33;;;11.13;;
12367;SDS011;6248;49.812;6.620;2024-03-08T11:12:21;12.43;;;11.13;;
12367;SDS011;6248;49.812;6.620;2024-03-08T11:14:50;14.83;;;11.80;;
12367;SDS011;6248;49.812;6.620;2024-03-08T11:17:20;12.90;;;10.20;;
12367;SDS011;6248;49.812;6.620;2024-03-08T11:19:47;15.10;;;11.70;;
12367;SDS011;6248;49.812;6.620;2024-03-08T11:22:20;14.53;;;11.80;;
12367;SDS011;6248;49.812;6.620;2024-03-08T11:24:50;13.47;;;11.77;;
12367;SDS011;6248;49.812;6.620;2024-03-08T11:27:17;14.33;;;11.10;;
12367;SDS011;6248;49.812;6.620;2024-03-08T11:29:51;13.97;;;10.83;;
12367;SDS011;6248;49.812;6.620;2024-03-08T11:32:27;12.03;;;10.57;;
12367;SDS011;6248;49.812;6.620;2024-03-08T11:34:54;13.27;;;11.77;;
12367;SDS011;6248;49.812;6.620;2024-03-08T11:37:21;13.23;;;10.37;;
12367;SDS011;6248;49.812;6.620;2024-03-08T11:39:49;16.67;;;12.57;;
12367;SDS011;6248;49.812;6.620;2024-03-08T11:42:18;12.43;;;10.80;;
12367;SDS011;6248;49.812;6.620;2024-03-08T11:44:46;16.25;;;11.38;;
12367;SDS011;6248;49.812;6.620;2024-03-08T11:47:13;11.88;;;10.68;;
12367;SDS011;6248;49.812;6.620;2024-03-08T11:49:41;10.77;;;9.73;;
12367;SDS011;6248;49.812;6.620;2024-03-08T11:52:10;11.20;;;10.10;;
12367;SDS011;6248;49.812;6.620;2024-03-08T11:54:38;11.85;;;9.90;;
12367;SDS011;6248;49.812;6.620;2024-03-08T11:57:05;11.70;;;10.50;;
12367;SDS011;6248;49.812;6.620;2024-03-08T11:59:36;11.00;;;9.90;;
12367;SDS011;6248;49.812;6.620;2024-03-08T12:02:03;11.45;;;10.35;;
12367;SDS011;6248;49.812;6.620;2024-03-08T12:04:31;11.25;;;10.15;;
12367;SDS011;6248;49.812;6.620;2024-03-08T12:07:01;11.00;;;9.80;;
12367;SDS011;6248;49.812;6.620;2024-03-08T12:09:34;11.15;;;9.65;;
12367;SDS011;6248;49.812;6.620;2024-03-08T12:12:02;11.27;;;10.07;;
12367;SDS011;6248;49.812;6.620;2024-03-08T12:14:29;12.35;;;11.05;;
12367;SDS011;6248;49.812;6.620;2024-03-08T12:16:58;10.90;;;9.82;;
12367;SDS011;6248;49.812;6.620;2024-03-08T12:19:27;11.75;;;10.55;;
12367;SDS011;6248;49.812;6.620;2024-03-08T12:21:54;10.88;;;9.77;;
12367;SDS011;6248;49.812;6.620;2024-03-08T12:24:21;12.88;;;10.88;;
12367;SDS011;6248;49.812;6.620;2024-03-08T12:26:48;11.80;;;10.15;;
12367;SDS011;6248;49.812;6.620;2024-03-08T12:29:17;11.43;;;10.23;;
12367;SDS011;6248;49.812;6.620;2024-03-08T12:31:45;11.68;;;10.48;;
12367;SDS011;6248;49.812;6.620;2024-03-08T12:34:14;11.50;;;10.30;;
12367;SDS011;6248;49.812;6.620;2024-03-08T12:36:44;12.13;;;10.93;;
12367;SDS011;6248;49.812;6.620;2024-03-08T12:39:13;11.20;;;10.10;;
12367;SDS011;6248;49.812;6.620;2024-03-08T12:41:41;12.02;;;10.82;;
12367;SDS011;6248;49.812;6.620;2024-03-08T12:44:08;12.85;;;11.55;;
12367;SDS011;6248;49.812;6.620;2024-03-08T12:46:36;12.07;;;10.85;;
12367;SDS011;6248;49.812;6.620;2024-03-08T12:49:05;12.02;;;10.73;;
12367;SDS011;6248;49.812;6.620;2024-03-08T12:51:34;11.70;;;10.50;;
12367;SDS011;6248;49.812;6.620;2024-03-08T12:54:01;12.20;;;10.57;;
12367;SDS011;6248;49.812;6.620;2024-03-08T12:56:29;12.23;;;10.93;;
12367;SDS011;6248;49.812;6.620;2024-03-08T12:58:57;13.45;;;11.18;;
12367;SDS011;6248;49.812;6.620;2024-03-08T13:01:25;12.38;;;11.18;;
12367;SDS011;6248;49.812;6.620;2024-03-08T13:03:52;11.40;;;10.27;;
12367;SDS011;6248;49.812;6.620;2024-03-08T13:06:20;12.38;;;10.35;;
12367;SDS011;6248;49.812;6.620;2024-03-08T13:08:51;11.70;;;10.50;;
12367;SDS011;6248;49.812;6.620;2024-03-08T13:11:18;11.48;;;10.38;;
12367;SDS011;6248;49.812;6.620;2024-03-08T13:13:45;12.45;;;11.10;;
12367;SDS011;6248;49.812;6.620;2024-03-08T13:16:13;13.57;;;11.68;;
12367;SDS011;6248;49.812;6.620;2024-03-08T13:18:42;11.93;;;10.73;;
12367;SDS011;6248;49.812;6.620;2024-03-08T13:21:09;11.90;;;10.80;;
12367;SDS011;6248;49.812;6.620;2024-03-08T13:23:39;12.73;;;11.43;;
12367;SDS011;6248;49.812;6.620;2024-03-08T13:26:13;12.85;;;10.90;;
12367;SDS011;6248;49.812;6.620;2024-03-08T13:28:40;12.50;;;11.20;;
12367;SDS011;6248;49.812;6.620;2024-03-08T13:31:07;14.88;;;11.05;;
12367;SDS011;6248;49.812;6.620;2024-03-08T13:33:35;13.15;;;11.75;;
12367;SDS011;6248;49.812;6.620;2024-03-08T13:36:04;14.07;;;11.60;;
12367;SDS011;6248;49.812;6.620;2024-03-08T13:38:39;13.20;;;11.90;;
12367;SDS011;6248;49.812;6.620;2024-03-08T13:41:07;12.98;;;11.57;;
12367;SDS011;6248;49.812;6.620;2024-03-08T13:43:36;12.15;;;10.95;;
12367;SDS011;6248;49.812;6.620;2024-03-08T13:46:03;11.87;;;10.67;;
12367;SDS011;6248;49.812;6.620;2024-03-08T13:48:32;12.85;;;11.55;;
12367;SDS011;6248;49.812;6.620;2024-03-08T13:50:59;13.20;;;11.63;;
12367;SDS011;6248;49.812;6.620;2024-03-08T13:53:26;14.00;;;12.50;;
12367;SDS011;6248;49.812;6.620;2024-03-08T13:55:53;13.05;;;11.75;;
12367;SDS011;6248;49.812;6.620;2024-03-08T13:58:21;12.90;;;11.57;;
12367;SDS011;6248;49.812;6.620;2024-03-08T14:00:50;12.48;;;10.90;;
12367;SDS011;6248;49.812;6.620;2024-03-08T14:03:17;12.27;;;10.97;;
12367;SDS011;6248;49.812;6.620;2024-03-08T14:05:46;12.13;;;10.93;;
12367;SDS011;6248;49.812;6.620;2024-03-08T14:08:13;11.68;;;10.48;;
12367;SDS011;6248;49.812;6.620;2024-03-08T14:10:42;11.57;;;10.38;;
12367;SDS011;6248;49.812;6.620;2024-03-08T14:13:11;12.40;;;11.10;;
12367;SDS011;6248;49.812;6.620;2024-03-08T14:15:41;12.10;;;10.70;;
12367;SDS011;6248;49.812;6.620;2024-03-08T14:18:11;11.35;;;9.93;;
12367;SDS011;6248;49.812;6.620;2024-03-08T14:20:39;13.75;;;11.13;;
12367;SDS011;6248;49.812;6.620;2024-03-08T14:23:07;11.67;;;10.47;;
12367;SDS011;6248;49.812;6.620;2024-03-08T14:25:34;13.10;;;11.07;;
12367;SDS011;6248;49.812;6.620;2024-03-08T14:28:01;12.03;;;10.83;;
12367;SDS011;6248;49.812;6.620;2024-03-08T14:30:31;15.07;;;10.63;;
12367;SDS011;6248;49.812;6.620;2024-03-08T14:33:00;11.53;;;10.40;;
12367;SDS011;6248;49.812;6.620;2024-03-08T14:35:28;11.37;;;10.17;;
12367;SDS011;6248;49.812;6.620;2024-03-08T14:37:55;11.47;;;10.10;;
12367;SDS011;6248;49.812;6.620;2024-03-08T14:40:23;12.83;;;10.57;;
12367;SDS011;6248;49.812;6.620;2024-03-08T14:42:51;11.83;;;10.53;;
12367;SDS011;6248;49.812;6.620;2024-03-08T14:45:18;11.67;;;10.30;;